createdAt,value
2023-04-30T00:02:16.043Z,99463.29
2023-04-30T00:04:43.208Z,99460.69
2023-04-30T00:07:10.249Z,99451.52
2023-04-30T00:09:37.339Z,99452.73
2023-04-30T00:12:04.647Z,99445.06
2023-04-30T00:14:31.623Z,99446.85
2023-04-30T00:16:58.755Z,99445.97
2023-04-30T00:19:26.073Z,99441.52
2023-04-30T00:21:53.130Z,99449.24
2023-04-30T00:24:20.211Z,99448.87
2023-04-30T00:26:48.040Z,99439.19
2023-04-30T00:29:15.089Z,99437.22
2023-04-30T00:31:42.489Z,99450.18
2023-04-30T00:34:09.687Z,99447.70
2023-04-30T00:36:36.942Z,99446.17
2023-04-30T00:39:04.400Z,99448.66
2023-04-30T00:41:31.550Z,99452.27
2023-04-30T00:43:58.613Z,99460.10
2023-04-30T00:46:25.972Z,99456.83
2023-04-30T00:48:53.205Z,99459.30
2023-04-30T00:51:20.614Z,99467.46
2023-04-30T00:53:47.767Z,99459.91
2023-04-30T00:56:16.668Z,99467.87
2023-04-30T00:58:43.851Z,99459.30
2023-04-30T01:01:10.992Z,99458.10
2023-04-30T01:03:38.248Z,99456.55
2023-04-30T01:06:05.869Z,99456.70
2023-04-30T01:08:33.078Z,99443.83
2023-04-30T01:11:08.606Z,99437.11
2023-04-30T01:13:41.153Z,99436.56
2023-04-30T01:16:19.281Z,99430.32
2023-04-30T01:18:52.897Z,99433.55
2023-04-30T01:21:22.954Z,99435.31
2023-04-30T01:23:59.310Z,99432.88
2023-04-30T01:27:08.637Z,99439.39
2023-04-30T01:29:36.282Z,99438.58
2023-04-30T01:32:04.054Z,99437.83
2023-04-30T01:34:31.300Z,99435.20
2023-04-30T01:37:16.789Z,99435.64
2023-04-30T01:40:16.998Z,99430.73
2023-04-30T01:43:11.310Z,99429.73
2023-04-30T01:45:41.507Z,99430.61
2023-04-30T01:48:19.160Z,99433.21
2023-04-30T01:50:56.000Z,99433.88
2023-04-30T01:53:33.496Z,99422.72
2023-04-30T01:56:03.560Z,99415.48
2023-04-30T01:58:31.325Z,99411.65
2023-04-30T02:00:58.834Z,99409.30
2023-04-30T02:03:26.107Z,99408.73
2023-04-30T02:05:53.330Z,99415.08
2023-04-30T02:08:21.334Z,99413.27
2023-04-30T02:10:48.493Z,99419.00
2023-04-30T02:13:15.799Z,99421.11
2023-04-30T02:15:43.040Z,99417.87
2023-04-30T02:18:10.275Z,99415.14
2023-04-30T02:20:37.572Z,99414.38
2023-04-30T02:23:04.705Z,99412.42
2023-04-30T02:25:33.283Z,99414.38
2023-04-30T02:28:00.537Z,99409.56
2023-04-30T02:30:28.338Z,99414.71
2023-04-30T02:32:56.701Z,99416.39
2023-04-30T02:35:23.926Z,99416.81
2023-04-30T02:37:51.232Z,99413.20
2023-04-30T02:40:18.650Z,99407.87
2023-04-30T02:42:45.713Z,99407.09
2023-04-30T02:45:12.847Z,99402.44
2023-04-30T02:47:40.663Z,99399.72
2023-04-30T02:50:08.379Z,99398.14
2023-04-30T02:52:35.515Z,99395.69
2023-04-30T02:55:02.558Z,99392.86
2023-04-30T02:57:29.708Z,99393.70
2023-04-30T02:59:57.334Z,99392.14
2023-04-30T03:02:24.765Z,99385.38
2023-04-30T03:04:51.856Z,99382.25
2023-04-30T03:07:18.952Z,99385.34
2023-04-30T03:09:46.815Z,99387.71
2023-04-30T03:12:14.968Z,99390.11
2023-04-30T03:14:42.246Z,99391.61
2023-04-30T03:17:09.673Z,99384.80
2023-04-30T03:19:36.721Z,99380.45
2023-04-30T03:22:03.873Z,99377.70
2023-04-30T03:24:31.228Z,99377.51
2023-04-30T03:26:58.438Z,99377.13
2023-04-30T03:29:25.891Z,99381.38
2023-04-30T03:31:53.600Z,99383.34
2023-04-30T03:34:20.901Z,99384.52
2023-04-30T03:36:48.585Z,99385.00
2023-04-30T03:39:16.338Z,99388.96
2023-04-30T03:41:43.944Z,99390.89
2023-04-30T03:44:16.152Z,99386.91
2023-04-30T03:46:44.006Z,99383.32
2023-04-30T03:49:11.539Z,99386.88
2023-04-30T03:51:42.170Z,99386.99
2023-04-30T03:54:09.728Z,99387.02
2023-04-30T03:56:36.981Z,99390.90
2023-04-30T03:59:05.594Z,99396.22
2023-04-30T04:01:33.078Z,99400.06
2023-04-30T04:04:00.395Z,99395.02
2023-04-30T04:06:27.609Z,99397.94
2023-04-30T04:08:54.822Z,99399.95
2023-04-30T04:11:22.760Z,99395.66
2023-04-30T04:13:50.004Z,99398.66
2023-04-30T04:16:17.323Z,99400.83
2023-04-30T04:18:44.764Z,99404.68
2023-04-30T04:21:13.154Z,99404.64
2023-04-30T04:23:40.360Z,99401.00
2023-04-30T04:26:07.414Z,99399.95
2023-04-30T04:28:34.657Z,99399.20
2023-04-30T04:31:03.301Z,99397.35
2023-04-30T04:33:31.192Z,99395.12
2023-04-30T04:35:58.658Z,99400.96
2023-04-30T04:38:26.648Z,99408.85
2023-04-30T04:40:54.672Z,99407.30
2023-04-30T04:43:22.580Z,99408.17
2023-04-30T04:45:50.155Z,99413.31
2023-04-30T04:56:08.520Z,99400.33
2023-04-30T04:58:35.576Z,99396.12
2023-04-30T05:01:03.222Z,99399.69
2023-04-30T05:03:31.595Z,99405.61
2023-04-30T05:05:59.376Z,99403.16
2023-04-30T05:08:26.991Z,99399.54
2023-04-30T05:10:54.189Z,99404.98
2023-04-30T05:13:21.573Z,99403.85
2023-04-30T05:15:52.253Z,99401.21
2023-04-30T05:18:20.269Z,99398.31
2023-04-30T05:20:47.384Z,99395.95
2023-04-30T05:23:14.435Z,99403.43
2023-04-30T05:25:41.582Z,99406.99
2023-04-30T05:28:09.145Z,99413.27
2023-04-30T05:30:36.779Z,99412.05
2023-04-30T05:33:04.014Z,99409.80
2023-04-30T05:35:31.736Z,99410.92
2023-04-30T05:37:58.979Z,99408.96
2023-04-30T05:40:26.041Z,99413.64
2023-04-30T05:42:53.183Z,99416.96
2023-04-30T05:45:20.217Z,99411.14
2023-04-30T05:47:47.453Z,99405.84
2023-04-30T05:50:14.825Z,99409.93
2023-04-30T05:52:41.868Z,99415.30
2023-04-30T05:55:10.014Z,99412.04
2023-04-30T05:57:37.091Z,99405.39
2023-04-30T06:00:06.924Z,99405.16
2023-04-30T06:02:39.528Z,99411.73
2023-04-30T06:05:08.176Z,99418.20
2023-04-30T06:07:35.253Z,99417.70
2023-04-30T06:10:02.877Z,99412.46
2023-04-30T06:12:29.989Z,99407.31
2023-04-30T06:14:57.705Z,99412.20
2023-04-30T06:17:24.867Z,99408.47
2023-04-30T06:19:52.189Z,99404.77
2023-04-30T06:22:19.348Z,99407.13
2023-04-30T06:24:46.670Z,99412.08
2023-04-30T06:27:13.747Z,99410.14
2023-04-30T06:29:41.112Z,99413.51
2023-04-30T06:32:08.636Z,99416.77
2023-04-30T06:34:37.088Z,99419.47
2023-04-30T06:37:04.202Z,99425.21
2023-04-30T06:39:31.555Z,99426.67
2023-04-30T06:41:58.600Z,99428.58
2023-04-30T06:44:27.791Z,99425.77
2023-04-30T06:46:55.062Z,99423.46
2023-04-30T06:49:22.206Z,99420.18
2023-04-30T06:51:49.289Z,99417.17
2023-04-30T06:54:16.720Z,99409.19
2023-04-30T06:56:45.307Z,99412.35
2023-04-30T06:59:12.450Z,99416.33
2023-04-30T07:01:39.664Z,99420.95
2023-04-30T07:04:06.839Z,99416.11
2023-04-30T07:06:34.142Z,99412.23
2023-04-30T07:09:01.477Z,99408.96
2023-04-30T07:11:28.528Z,99409.70
2023-04-30T07:13:56.008Z,99414.17
2023-04-30T07:16:25.711Z,99417.17
2023-04-30T07:18:52.930Z,99417.13
2023-04-30T07:21:19.970Z,99411.48
2023-04-30T07:23:46.963Z,99407.38
2023-04-30T07:26:14.869Z,99405.96
2023-04-30T07:28:41.913Z,99404.08
2023-04-30T07:31:09.192Z,99403.23
2023-04-30T07:33:36.285Z,99399.73
2023-04-30T07:36:03.773Z,99401.70
2023-04-30T07:38:31.125Z,99405.80
2023-04-30T07:40:58.198Z,99402.89
2023-04-30T07:43:25.869Z,99401.84
2023-04-30T07:45:54.663Z,99398.23
2023-04-30T07:48:22.491Z,99397.09
2023-04-30T07:50:50.788Z,99394.24
2023-04-30T07:53:19.788Z,99396.98
2023-04-30T07:55:47.459Z,99388.17
2023-04-30T07:58:14.573Z,99388.93
2023-04-30T08:00:41.724Z,99387.69
2023-04-30T08:03:09.329Z,99386.35
2023-04-30T08:05:36.768Z,99382.75
2023-04-30T08:08:04.037Z,99379.40
2023-04-30T08:10:32.276Z,99380.40
2023-04-30T08:12:59.537Z,99381.08
2023-04-30T08:15:27.592Z,99381.52
2023-04-30T08:17:55.884Z,99380.27
2023-04-30T08:20:26.549Z,99382.54
2023-04-30T08:22:53.665Z,99376.08
2023-04-30T08:25:20.908Z,99379.70
2023-04-30T08:27:47.988Z,99381.65
2023-04-30T08:30:15.103Z,99387.15
2023-04-30T08:32:42.235Z,99381.54
2023-04-30T08:35:10.232Z,99373.35
2023-04-30T08:37:37.409Z,99373.63
2023-04-30T08:40:05.344Z,99371.66
2023-04-30T08:42:34.346Z,99368.52
2023-04-30T08:45:01.798Z,99361.79
2023-04-30T08:47:28.951Z,99363.20
2023-04-30T08:49:56.458Z,99366.28
2023-04-30T08:52:23.853Z,99368.69
2023-04-30T08:54:51.424Z,99371.52
2023-04-30T08:57:19.133Z,99370.97
2023-04-30T08:59:49.022Z,99369.14
2023-04-30T09:02:16.534Z,99374.36
2023-04-30T09:04:43.614Z,99378.52
2023-04-30T09:07:12.189Z,99376.64
2023-04-30T09:09:39.692Z,99384.98
2023-04-30T09:12:19.411Z,99390.44
2023-04-30T09:15:02.356Z,99391.77
2023-04-30T09:17:30.148Z,99390.20
2023-04-30T09:20:13.621Z,99388.79
2023-04-30T09:22:42.002Z,99380.33
2023-04-30T09:25:10.257Z,99375.96
2023-04-30T09:27:37.934Z,99367.30
2023-04-30T09:30:05.992Z,99367.95
2023-04-30T09:32:33.157Z,99366.52
2023-04-30T09:35:00.312Z,99365.85
2023-04-30T09:37:38.107Z,99366.24
2023-04-30T09:40:05.898Z,99364.85
2023-04-30T09:42:32.921Z,99365.17
2023-04-30T09:45:00.281Z,99361.85
2023-04-30T09:47:29.841Z,99361.79
2023-04-30T09:49:57.104Z,99362.77
2023-04-30T09:52:24.772Z,99362.44
2023-04-30T09:54:51.747Z,99365.78
2023-04-30T09:57:18.874Z,99364.93
2023-04-30T09:59:46.921Z,99370.56
2023-04-30T10:02:16.292Z,99376.59
2023-04-30T10:04:44.011Z,99380.61
2023-04-30T10:07:15.879Z,99384.61
2023-04-30T10:09:47.226Z,99390.77
2023-04-30T10:12:15.467Z,99392.46
2023-04-30T10:14:46.652Z,99401.08
2023-04-30T10:17:14.795Z,99405.55
2023-04-30T10:19:47.728Z,99407.00
2023-04-30T10:22:15.307Z,99406.05
2023-04-30T10:24:43.451Z,99407.98
2023-04-30T10:27:10.585Z,99406.21
2023-04-30T10:29:37.872Z,99407.55
2023-04-30T10:32:05.445Z,99413.14
2023-04-30T10:35:02.398Z,99411.80
2023-04-30T10:37:47.631Z,99412.06
2023-04-30T10:40:15.211Z,99415.89
2023-04-30T10:42:49.176Z,99421.55
2023-04-30T10:45:16.845Z,99420.02
2023-04-30T10:47:45.863Z,99426.13
2023-04-30T10:50:13.557Z,99424.30
2023-04-30T10:52:40.754Z,99428.19
2023-04-30T10:55:08.765Z,99438.92
2023-04-30T10:57:43.507Z,99442.77
2023-04-30T11:00:10.728Z,99435.70
2023-04-30T11:02:45.210Z,99431.48
2023-04-30T11:05:16.364Z,99438.59
2023-04-30T11:07:50.705Z,99441.48
2023-04-30T11:10:21.950Z,99439.35
2023-04-30T11:12:49.665Z,99439.36
2023-04-30T11:15:18.562Z,99436.58
2023-04-30T11:17:46.135Z,99436.77
2023-04-30T11:20:14.872Z,99439.06
2023-04-30T11:22:41.993Z,99434.30
2023-04-30T11:25:10.260Z,99438.71
2023-04-30T11:27:38.563Z,99448.61
2023-04-30T11:30:10.928Z,99454.23
2023-04-30T11:32:38.678Z,99459.02
2023-04-30T11:35:07.097Z,99450.82
2023-04-30T11:37:35.756Z,99434.02
2023-04-30T11:40:04.468Z,99432.41
2023-04-30T11:42:34.699Z,99440.52
2023-04-30T11:45:09.642Z,99422.83
2023-04-30T11:47:41.463Z,99409.63
2023-04-30T11:50:10.382Z,99408.89
2023-04-30T11:52:38.247Z,99434.91
2023-04-30T11:55:19.292Z,99445.21
2023-04-30T11:57:47.802Z,99428.46
2023-04-30T12:00:16.607Z,99425.83
2023-04-30T12:02:45.981Z,99429.71
2023-04-30T12:05:17.658Z,99432.05
2023-04-30T12:07:52.348Z,99433.38
2023-04-30T12:10:20.550Z,99433.26
2023-04-30T12:12:49.648Z,99426.50
2023-04-30T12:15:23.345Z,99429.27
2023-04-30T12:17:50.722Z,99428.39
2023-04-30T12:20:18.952Z,99435.85
2023-04-30T12:22:46.191Z,99437.85
2023-04-30T12:25:14.796Z,99445.02
2023-04-30T12:27:43.153Z,99443.91
2023-04-30T12:30:10.583Z,99443.09
2023-04-30T12:32:45.190Z,99447.45
2023-04-30T12:35:17.125Z,99445.80
2023-04-30T12:38:03.349Z,99444.15
2023-04-30T12:40:30.996Z,99448.04
2023-04-30T12:43:02.891Z,99449.02
2023-04-30T12:45:55.896Z,99450.29
2023-04-30T12:48:24.701Z,99448.09
2023-04-30T12:50:56.618Z,99445.21
2023-04-30T12:53:24.400Z,99440.77
2023-04-30T12:56:09.583Z,99438.09
2023-04-30T12:58:38.610Z,99434.59
2023-04-30T13:01:06.627Z,99434.73
2023-04-30T13:03:33.817Z,99433.17
2023-04-30T13:06:03.153Z,99438.98
2023-04-30T13:08:30.712Z,99438.73
2023-04-30T13:10:58.497Z,99437.08
2023-04-30T13:13:26.256Z,99437.75
2023-04-30T13:15:53.275Z,99437.92
2023-04-30T13:18:20.660Z,99436.38
2023-04-30T13:20:48.055Z,99438.53
2023-04-30T13:23:15.196Z,99438.83
2023-04-30T13:25:42.343Z,99445.30
2023-04-30T13:28:09.486Z,99448.91
2023-04-30T13:30:36.624Z,99455.48
2023-04-30T13:33:04.029Z,99458.41
2023-04-30T13:35:31.428Z,99467.02
2023-04-30T13:38:02.157Z,99470.65
2023-04-30T13:40:29.695Z,99474.42
2023-04-30T13:42:56.780Z,99476.44
2023-04-30T13:45:24.139Z,99482.19
2023-04-30T13:47:51.362Z,99481.42
2023-04-30T13:50:18.557Z,99481.08
2023-04-30T13:52:45.785Z,99477.57
2023-04-30T13:55:14.376Z,99479.22
2023-04-30T13:57:41.517Z,99481.29
2023-04-30T14:00:09.289Z,99477.38
2023-04-30T14:02:36.670Z,99477.11
2023-04-30T14:05:06.318Z,99476.29
2023-04-30T14:07:34.046Z,99474.34
2023-04-30T14:10:01.281Z,99481.99
2023-04-30T14:12:30.867Z,99485.95
2023-04-30T14:14:58.062Z,99484.61
2023-04-30T14:17:27.208Z,99481.50
2023-04-30T14:19:55.049Z,99487.08
2023-04-30T14:22:22.435Z,99498.85
2023-04-30T14:24:49.613Z,99504.84
2023-04-30T14:27:16.630Z,99507.58
2023-04-30T14:29:43.708Z,99510.33
2023-04-30T14:32:10.882Z,99512.63
2023-04-30T14:34:38.506Z,99521.71
2023-04-30T14:37:05.670Z,99529.18
2023-04-30T14:39:33.093Z,99544.42
2023-04-30T14:42:00.241Z,99550.51
2023-04-30T14:44:27.336Z,99550.17
2023-04-30T14:46:54.652Z,99546.61
2023-04-30T14:49:21.812Z,99547.92
2023-04-30T14:51:48.957Z,99544.85
2023-04-30T14:54:16.714Z,99544.14
2023-04-30T14:56:44.744Z,99546.64
2023-04-30T14:59:12.142Z,99551.41
2023-04-30T15:01:39.342Z,99553.92
2023-04-30T15:04:07.387Z,99555.80
2023-04-30T15:06:34.489Z,99559.39
2023-04-30T15:09:02.077Z,99556.27
2023-04-30T15:11:29.236Z,99554.77
2023-04-30T15:13:56.374Z,99555.32
2023-04-30T15:16:23.439Z,99563.12
2023-04-30T15:18:50.726Z,99565.51
2023-04-30T15:21:17.859Z,99567.44
2023-04-30T15:23:46.130Z,99565.02
2023-04-30T15:26:13.245Z,99565.31
2023-04-30T15:28:40.309Z,99560.34
2023-04-30T15:31:07.858Z,99560.46
2023-04-30T15:33:39.768Z,99561.98
2023-04-30T15:36:06.976Z,99560.48
2023-04-30T15:38:34.626Z,99562.96
2023-04-30T15:41:01.965Z,99565.05
2023-04-30T15:43:30.338Z,99572.26
2023-04-30T15:45:57.518Z,99572.72
2023-04-30T15:48:25.845Z,99573.88
2023-04-30T15:50:53.084Z,99577.80
2023-04-30T15:53:20.189Z,99584.63
2023-04-30T15:55:48.882Z,99581.91
2023-04-30T15:58:16.552Z,99579.29
2023-04-30T16:00:43.997Z,99578.05
2023-04-30T16:03:11.913Z,99580.52
2023-04-30T16:05:40.721Z,99583.41
2023-04-30T16:08:09.089Z,99584.04
2023-04-30T16:10:37.050Z,99582.17
2023-04-30T16:13:04.150Z,99584.14
2023-04-30T16:15:31.233Z,99587.45
2023-04-30T16:17:58.381Z,99590.12
2023-04-30T16:20:25.504Z,99588.55
2023-04-30T16:22:52.869Z,99589.41
2023-04-30T16:25:20.920Z,99589.09
2023-04-30T16:27:48.182Z,99585.64
2023-04-30T16:30:15.424Z,99590.32
2023-04-30T16:32:42.531Z,99590.23
2023-04-30T16:35:10.279Z,99590.98
2023-04-30T16:37:37.420Z,99592.93
2023-04-30T16:40:06.541Z,99596.03
2023-04-30T16:42:34.949Z,99601.16
2023-04-30T16:45:02.327Z,99606.89
2023-04-30T16:47:29.481Z,99610.10
2023-04-30T16:49:58.776Z,99605.05
2023-04-30T16:52:26.120Z,99604.23
2023-04-30T16:54:53.269Z,99604.67
2023-04-30T16:57:21.357Z,99600.91
2023-04-30T16:59:48.845Z,99596.96
2023-04-30T17:02:16.266Z,99595.27
2023-04-30T17:04:43.433Z,99601.19
2023-04-30T17:07:12.828Z,99600.29
2023-04-30T17:09:39.867Z,99607.83
2023-04-30T17:12:08.235Z,99610.48
2023-04-30T17:14:35.502Z,99615.73
2023-04-30T17:17:02.642Z,99615.31
2023-04-30T17:19:29.831Z,99615.02
2023-04-30T17:21:57.543Z,99616.73
2023-04-30T17:24:25.252Z,99618.15
2023-04-30T17:26:52.677Z,99617.02
2023-04-30T17:29:23.779Z,99620.27
2023-04-30T17:31:50.992Z,99622.08
2023-04-30T17:34:18.395Z,99622.26
2023-04-30T17:36:45.445Z,99621.22
2023-04-30T17:39:12.879Z,99621.19
2023-04-30T17:41:40.122Z,99613.16
2023-04-30T17:44:07.245Z,99604.11
2023-04-30T17:46:34.581Z,99599.95
2023-04-30T17:49:03.690Z,99606.45
2023-04-30T17:51:31.814Z,99611.02
2023-04-30T17:54:01.978Z,99616.70
2023-04-30T17:56:31.481Z,99613.85
2023-04-30T17:58:59.048Z,99608.51
2023-04-30T18:01:27.085Z,99604.83
2023-04-30T18:03:54.399Z,99603.95
2023-04-30T18:06:21.768Z,99602.79
2023-04-30T18:08:48.970Z,99600.09
2023-04-30T18:11:16.152Z,99599.00
2023-04-30T18:13:43.296Z,99599.74
2023-04-30T18:16:10.857Z,99597.58
2023-04-30T18:18:37.923Z,99595.02
2023-04-30T18:21:05.436Z,99598.50
2023-04-30T18:23:32.587Z,99598.27
2023-04-30T18:25:59.736Z,99600.42
2023-04-30T18:28:26.991Z,99602.05
2023-04-30T18:30:54.889Z,99600.29
2023-04-30T18:33:22.311Z,99600.31
2023-04-30T18:35:51.655Z,99596.34
2023-04-30T18:38:18.983Z,99596.14
2023-04-30T18:40:46.524Z,99600.73
2023-04-30T18:43:14.768Z,99599.91
2023-04-30T18:45:42.067Z,99601.25
2023-04-30T18:48:09.248Z,99603.02
2023-04-30T18:50:36.263Z,99604.14
2023-04-30T18:53:03.415Z,99608.34
2023-04-30T18:55:30.501Z,99609.71
2023-04-30T18:57:57.676Z,99613.71
2023-04-30T19:00:24.776Z,99611.17
2023-04-30T19:02:51.965Z,99613.86
2023-04-30T19:05:19.816Z,99616.52
2023-04-30T19:07:47.052Z,99615.04
2023-04-30T19:10:14.482Z,99621.63
2023-04-30T19:12:44.111Z,99626.20
2023-04-30T19:15:15.064Z,99627.41
2023-04-30T19:17:42.532Z,99632.52
2023-04-30T19:20:10.555Z,99640.64
2023-04-30T19:22:38.213Z,99644.02
2023-04-30T19:25:05.892Z,99645.88
2023-04-30T19:27:32.919Z,99647.10
2023-04-30T19:30:00.050Z,99648.02
2023-04-30T19:32:27.354Z,99647.46
2023-04-30T19:34:54.513Z,99649.67
2023-04-30T19:37:21.852Z,99648.13
2023-04-30T19:39:48.986Z,99648.44
2023-04-30T19:42:16.740Z,99654.67
2023-04-30T19:44:43.892Z,99656.83
2023-04-30T19:47:11.042Z,99656.20
2023-04-30T19:49:38.155Z,99656.67
2023-04-30T19:52:07.805Z,99662.96
2023-04-30T19:54:34.905Z,99662.26
2023-04-30T19:57:02.358Z,99658.83
2023-04-30T19:59:29.692Z,99662.05
2023-04-30T20:01:57.232Z,99661.30
2023-04-30T20:04:26.557Z,99659.60
2023-04-30T20:06:57.063Z,99656.29
2023-04-30T20:09:24.987Z,99658.15
2023-04-30T20:11:52.380Z,99656.62
2023-04-30T20:14:19.729Z,99650.86
2023-04-30T20:16:52.509Z,99655.58
2023-04-30T20:19:20.246Z,99649.00
2023-04-30T20:21:49.563Z,99651.71
2023-04-30T20:24:16.888Z,99651.19
2023-04-30T20:26:44.089Z,99651.75
2023-04-30T20:29:11.054Z,99651.84
2023-04-30T20:31:38.236Z,99655.86
2023-04-30T20:34:05.448Z,99653.05
2023-04-30T20:36:32.635Z,99651.33
2023-04-30T20:38:59.729Z,99651.79
2023-04-30T20:41:27.289Z,99653.64
2023-04-30T20:43:54.937Z,99650.73
2023-04-30T20:46:25.028Z,99647.21
2023-04-30T20:48:54.746Z,99646.05
2023-04-30T20:51:23.607Z,99641.73
2023-04-30T20:53:50.652Z,99640.49
2023-04-30T20:56:17.776Z,99639.02
2023-04-30T20:58:45.327Z,99638.21
2023-04-30T21:04:34.850Z,99646.75
2023-04-30T21:07:02.280Z,99645.80
2023-04-30T21:09:29.459Z,99651.05
2023-04-30T21:11:56.607Z,99654.76
2023-04-30T21:14:23.663Z,99658.53
2023-04-30T21:16:51.488Z,99662.09
2023-04-30T21:19:18.741Z,99663.05
2023-04-30T21:21:46.536Z,99665.25
2023-04-30T21:24:13.689Z,99665.91
2023-04-30T21:26:41.111Z,99668.98
2023-04-30T21:29:08.244Z,99670.17
2023-04-30T21:31:37.354Z,99672.76
2023-04-30T21:34:04.542Z,99675.09
2023-04-30T21:36:31.904Z,99673.68
2023-04-30T21:38:59.563Z,99672.64
2023-04-30T21:41:28.171Z,99668.89
2023-04-30T21:43:55.613Z,99664.25
2023-04-30T21:46:22.793Z,99659.46
2023-04-30T21:48:50.525Z,99651.12
2023-04-30T21:51:17.891Z,99642.70
2023-04-30T21:53:45.715Z,99642.63
2023-04-30T21:56:12.903Z,99638.61
2023-04-30T21:58:40.063Z,99638.02
2023-04-30T22:01:07.446Z,99635.80
2023-04-30T22:03:35.471Z,99635.16
2023-04-30T22:06:02.725Z,99636.81
2023-04-30T22:08:30.061Z,99637.01
2023-04-30T22:11:00.618Z,99635.41
2023-04-30T22:13:28.308Z,99635.45
2023-04-30T22:15:55.593Z,99637.10
2023-04-30T22:18:23.163Z,99637.50
2023-04-30T22:20:51.241Z,99639.98
2023-04-30T22:23:21.271Z,99643.77
2023-04-30T22:25:48.613Z,99644.60
2023-04-30T22:28:19.707Z,99647.98
2023-04-30T22:30:47.003Z,99652.00
2023-04-30T22:33:14.159Z,99650.56
2023-04-30T22:35:41.303Z,99652.10
2023-04-30T22:38:08.572Z,99651.88
2023-04-30T22:40:39.541Z,99649.70
2023-04-30T22:43:06.654Z,99653.70
2023-04-30T22:45:37.124Z,99652.77
2023-04-30T22:48:04.573Z,99654.11
2023-04-30T22:50:32.204Z,99652.29
2023-04-30T22:52:59.447Z,99655.14
2023-04-30T22:55:27.288Z,99654.25
2023-04-30T22:57:54.363Z,99655.63
2023-04-30T23:00:21.508Z,99656.73
2023-04-30T23:02:49.034Z,99650.61
2023-04-30T23:05:16.524Z,99646.84
2023-04-30T23:07:43.587Z,99644.48
2023-04-30T23:10:11.240Z,99641.05
2023-04-30T23:12:39.085Z,99642.26
2023-04-30T23:15:06.762Z,99638.57
2023-04-30T23:17:33.946Z,99646.85
2023-04-30T23:20:01.109Z,99643.19
2023-04-30T23:22:28.230Z,99645.66
2023-04-30T23:24:57.408Z,99649.34
2023-04-30T23:27:24.982Z,99652.77
2023-04-30T23:29:52.017Z,99655.98
2023-04-30T23:32:19.255Z,99650.14
2023-04-30T23:34:47.747Z,99651.23
2023-04-30T23:37:14.910Z,99655.37
2023-04-30T23:39:41.951Z,99652.92
2023-04-30T23:42:09.207Z,99653.61
2023-04-30T23:44:36.341Z,99652.54
2023-04-30T23:47:03.813Z,99654.06
2023-04-30T23:49:30.789Z,99656.96
2023-04-30T23:51:57.826Z,99654.79
2023-04-30T23:54:24.958Z,99660.19
2023-04-30T23:56:52.919Z,99659.70
2023-04-30T23:59:20.512Z,99660.02
